Sitc Xiamen — 3ELU — position and weather

sailwx.info

Track history (hours):
 
Tides and Currents Weather Stations Pressure Air Temp Water Temp Dewpoint Dewpoint Depression Visibility Wind Speed Wind Dir Waves Ship Positions

Sitc Xiamen

Last reported at 2015-Jul-30 16:33 UTC. Time now 2015-Jul-31 09:20 UTC.
Position N 33°41' E 129°53'.

Length 145 m; draft 8.6 m.

Type: Ship (hazmat cat A). MMSI: 355090000.

Date/timePositionNaut miles runAvg speedWind from/ knotsBaromVisibWave heightAir tempDewpointWater temp
2015-Jul-30 16:33N 33°41' E 129°53'1413.5
2015-Jul-30 15:33N 33°48' E 130°07'24212.7
2015-Jul-29 20:33N 34°36' E 134°53'1313.3
2015-Jul-29 19:33N 34°35' E 135°10'8 6.9
2015-Jul-29 18:28N 34°41' E 135°16'0 0.0
2015-Jul-29 17:28N 34°41' E 135°16'0 0.2
2015-Jul-29 16:33N 34°41' E 135°16'6 5.8
2015-Jul-29 15:33N 34°37' E 135°21'5 4.5
2015-Jul-29 14:32N 34°38' E 135°26'0 0.0
2015-Jul-29 13:32N 34°38' E 135°26'0 0.0
2015-Jul-29 12:32N 34°38' E 135°26'0 0.0
2015-Jul-29 11:26N 34°38' E 135°26'0 0.0
2015-Jul-29 10:32N 34°38' E 135°26'0 0.0
2015-Jul-29 09:20N 34°38' E 135°26'0 0.0
2015-Jul-29 08:32N 34°38' E 135°26'2 2.3
2015-Jul-29 07:33N 34°38' E 135°24'8 8.4
2015-Jul-29 06:33N 34°33' E 135°15'1 0.6
2015-Jul-29 05:33N 34°34' E 135°15'9 9.0
2015-Jul-29 04:33N 34°35' E 135°04'1514.6
2015-Jul-29 03:30N 34°32' E 134°46'  
2015-Jul-26 18:20N 33°57' E 130°20'4 0.7
2015-Jul-26 12:31N 33°55' E 130°16'1 1.3
2015-Jul-26 11:33N 33°54' E 130°17'1 0.8
2015-Jul-26 10:33N 33°54' E 130°17'1110.5
2015-Jul-26 09:33N 33°43' E 130°16'8 7.8
2015-Jul-26 08:34N 33°39' E 130°24'0 0.0
2015-Jul-26 07:31N 33°39' E 130°24'0 0.0
2015-Jul-26 06:31N 33°39' E 130°24'0 0.0
2015-Jul-26 05:32N 33°39' E 130°24'0 0.0
2015-Jul-26 04:29N 33°39' E 130°24'0 0.1
2015-Jul-26 03:32N 33°39' E 130°24'0 0.0
2015-Jul-26 02:31N 33°39' E 130°24'0 0.0
2015-Jul-26 01:32N 33°39' E 130°24'0 0.1
2015-Jul-26 00:32N 33°39' E 130°24'8 8.5
2015-Jul-25 23:33N 33°42' E 130°15'1313.1
2015-Jul-25 22:33N 33°42' E 129°59'1514.9
2015-Jul-25 21:32N 33°37' E 129°42'37815.7
2015-Jul-24 21:32N 31°10' E 122°50'1716.7
2015-Jul-24 20:33N 31°06' E 122°32'1111.5
2015-Jul-24 19:33N 31°06' E 122°18'1312.6
2015-Jul-24 18:33N 31°13' E 122°06'1313.3
2015-Jul-24 17:33N 31°16' E 121°51'1111.1
2015-Jul-24 16:34N 31°20' E 121°39'0 0.1
2015-Jul-24 15:33N 31°20' E 121°39'0 0.0
2015-Jul-24 14:33N 31°20' E 121°39'0 0.0
2015-Jul-24 13:33N 31°20' E 121°39'0 0.0
2015-Jul-24 12:33N 31°20' E 121°39'0 0.0
2015-Jul-24 11:33N 31°20' E 121°39'0 0.0
2015-Jul-24 10:33N 31°20' E 121°39'0 0.2
2015-Jul-24 09:33N 31°21' E 121°39'7 7.4
2015-Jul-24 08:33N 31°16' E 121°46'1414.5
2015-Jul-24 07:33N 31°06' E 121°58'1110.9
2015-Jul-24 06:33N 31°03' E 122°11'1010.2
2015-Jul-24 05:33N 31°02' E 122°22'15 0.9
2015-Jul-23 12:22N 30°47' E 122°19'1113.9
2015-Jul-23 11:33N 30°37' E 122°14'1514.6
2015-Jul-23 10:33N 30°27' E 122°00'1210.1
2015-Jul-23 09:24N 30°21' E 121°50'  
Track history (hours):
 
Tides and Currents Weather Stations Pressure Air Temp Water Temp Dewpoint Dewpoint Depression Visibility Wind Speed Wind Dir Waves Ship Positions

Sitc Xiamen

Last reported at 2015-Jul-30 16:33 UTC. Time now 2015-Jul-31 09:20 UTC.
Position N 33°41' E 129°53'.

Length 145 m; draft 8.6 m.

Type: Ship (hazmat cat A). MMSI: 355090000.

Date/timePositionNaut miles runAvg speedWind from/ knotsBaromVisibWave heightAir tempDewpointWater temp
2015-Jul-30 16:33N 33°41' E 129°53'1413.5
2015-Jul-30 15:33N 33°48' E 130°07'24212.7
2015-Jul-29 20:33N 34°36' E 134°53'1313.3
2015-Jul-29 19:33N 34°35' E 135°10'8 6.9
2015-Jul-29 18:28N 34°41' E 135°16'0 0.0
2015-Jul-29 17:28N 34°41' E 135°16'0 0.2
2015-Jul-29 16:33N 34°41' E 135°16'6 5.8
2015-Jul-29 15:33N 34°37' E 135°21'5 4.5
2015-Jul-29 14:32N 34°38' E 135°26'0 0.0
2015-Jul-29 13:32N 34°38' E 135°26'0 0.0
2015-Jul-29 12:32N 34°38' E 135°26'0 0.0
2015-Jul-29 11:26N 34°38' E 135°26'0 0.0
2015-Jul-29 10:32N 34°38' E 135°26'0 0.0
2015-Jul-29 09:20N 34°38' E 135°26'0 0.0
2015-Jul-29 08:32N 34°38' E 135°26'2 2.3
2015-Jul-29 07:33N 34°38' E 135°24'8 8.4
2015-Jul-29 06:33N 34°33' E 135°15'1 0.6
2015-Jul-29 05:33N 34°34' E 135°15'9 9.0
2015-Jul-29 04:33N 34°35' E 135°04'1514.6
2015-Jul-29 03:30N 34°32' E 134°46'  
2015-Jul-26 18:20N 33°57' E 130°20'4 0.7
2015-Jul-26 12:31N 33°55' E 130°16'1 1.3
2015-Jul-26 11:33N 33°54' E 130°17'1 0.8
2015-Jul-26 10:33N 33°54' E 130°17'1110.5
2015-Jul-26 09:33N 33°43' E 130°16'8 7.8
2015-Jul-26 08:34N 33°39' E 130°24'0 0.0
2015-Jul-26 07:31N 33°39' E 130°24'0 0.0
2015-Jul-26 06:31N 33°39' E 130°24'0 0.0
2015-Jul-26 05:32N 33°39' E 130°24'0 0.0
2015-Jul-26 04:29N 33°39' E 130°24'0 0.1
2015-Jul-26 03:32N 33°39' E 130°24'0 0.0
2015-Jul-26 02:31N 33°39' E 130°24'0 0.0
2015-Jul-26 01:32N 33°39' E 130°24'0 0.1
2015-Jul-26 00:32N 33°39' E 130°24'8 8.5
2015-Jul-25 23:33N 33°42' E 130°15'1313.1
2015-Jul-25 22:33N 33°42' E 129°59'1514.9
2015-Jul-25 21:32N 33°37' E 129°42'37815.7
2015-Jul-24 21:32N 31°10' E 122°50'1716.7
2015-Jul-24 20:33N 31°06' E 122°32'1111.5
2015-Jul-24 19:33N 31°06' E 122°18'1312.6
2015-Jul-24 18:33N 31°13' E 122°06'1313.3
2015-Jul-24 17:33N 31°16' E 121°51'1111.1
2015-Jul-24 16:34N 31°20' E 121°39'0 0.1
2015-Jul-24 15:33N 31°20' E 121°39'0 0.0
2015-Jul-24 14:33N 31°20' E 121°39'0 0.0
2015-Jul-24 13:33N 31°20' E 121°39'0 0.0
2015-Jul-24 12:33N 31°20' E 121°39'0 0.0
2015-Jul-24 11:33N 31°20' E 121°39'0 0.0
2015-Jul-24 10:33N 31°20' E 121°39'0 0.2
2015-Jul-24 09:33N 31°21' E 121°39'7 7.4
2015-Jul-24 08:33N 31°16' E 121°46'1414.5
2015-Jul-24 07:33N 31°06' E 121°58'1110.9
2015-Jul-24 06:33N 31°03' E 122°11'1010.2
2015-Jul-24 05:33N 31°02' E 122°22'15 0.9
2015-Jul-23 12:22N 30°47' E 122°19'1113.9
2015-Jul-23 11:33N 30°37' E 122°14'1514.6
2015-Jul-23 10:33N 30°27' E 122°00'1210.1
2015-Jul-23 09:24N 30°21' E 121°50'  

Dump ship's entire track history